createdAt,value
2019-05-29T00:00:25.219Z,11.00
2019-05-29T00:02:54.731Z,11.00
2019-05-29T00:05:24.187Z,11.00
2019-05-29T00:07:53.708Z,11.00
2019-05-29T00:10:23.294Z,11.00
2019-05-29T00:12:52.765Z,11.00
2019-05-29T00:15:23.870Z,10.90
2019-05-29T00:17:53.323Z,11.00
2019-05-29T00:20:22.766Z,10.90
2019-05-29T00:22:52.291Z,10.90
2019-05-29T00:25:21.726Z,10.90
2019-05-29T00:27:51.265Z,10.90
2019-05-29T00:30:20.914Z,10.90
2019-05-29T00:32:50.446Z,10.90
2019-05-29T00:35:19.914Z,10.80
2019-05-29T00:37:49.363Z,10.80
2019-05-29T00:40:19.144Z,10.80
2019-05-29T00:42:48.694Z,10.80
2019-05-29T00:45:18.651Z,10.70
2019-05-29T00:47:48.174Z,10.80
2019-05-29T00:50:17.770Z,10.60
2019-05-29T00:55:29.580Z,10.60
2019-05-29T00:57:59.046Z,10.60
2019-05-29T01:00:28.487Z,10.60
2019-05-29T01:02:57.946Z,10.60
2019-05-29T01:05:27.386Z,10.60
2019-05-29T01:07:56.840Z,10.50
2019-05-29T01:10:26.377Z,10.60
2019-05-29T01:12:55.902Z,10.60
2019-05-29T01:15:25.847Z,10.70
2019-05-29T01:17:55.291Z,10.70
2019-05-29T01:20:24.758Z,10.70
2019-05-29T01:22:54.191Z,10.70
2019-05-29T01:25:23.640Z,10.70
2019-05-29T01:27:53.098Z,10.80
2019-05-29T01:30:23.420Z,10.80
2019-05-29T01:32:52.856Z,10.80
2019-05-29T01:35:22.372Z,10.80
2019-05-29T01:37:51.831Z,10.80
2019-05-29T01:40:25.112Z,10.90
2019-05-29T01:42:52.379Z,10.80
2019-05-29T01:45:21.818Z,10.70
2019-05-29T01:47:51.289Z,10.70
2019-05-29T01:50:21.765Z,10.60
2019-05-29T01:52:51.302Z,10.60
2019-05-29T01:55:21.726Z,10.60
2019-05-29T01:57:51.222Z,10.50
2019-05-29T02:00:21.954Z,10.50
2019-05-29T02:02:51.568Z,10.50
2019-05-29T02:05:22.041Z,10.50
2019-05-29T02:07:51.676Z,10.40
2019-05-29T02:10:22.221Z,10.30
2019-05-29T02:12:51.679Z,10.20
2019-05-29T02:15:30.139Z,10.20
2019-05-29T02:17:53.780Z,10.10
2019-05-29T02:20:23.369Z,10.10
2019-05-29T02:22:52.836Z,10.10
2019-05-29T02:25:22.837Z,10.00
2019-05-29T02:27:52.294Z,10.00
2019-05-29T02:30:23.637Z,10.10
2019-05-29T02:32:53.233Z,10.10
2019-05-29T02:35:24.652Z,10.10
2019-05-29T02:37:53.763Z,10.00
2019-05-29T02:40:25.581Z,10.00
2019-05-29T02:42:54.379Z,10.00
2019-05-29T02:45:37.186Z,10.00
2019-05-29T02:47:55.050Z,9.90
2019-05-29T02:50:26.168Z,9.90
2019-05-29T02:52:55.567Z,9.90
2019-05-29T02:55:26.725Z,9.80
2019-05-29T02:57:56.229Z,9.80
2019-05-29T03:00:40.031Z,9.70
2019-05-29T03:03:09.455Z,9.70
2019-05-29T03:05:38.905Z,9.60
2019-05-29T03:08:08.447Z,9.60
2019-05-29T03:10:37.883Z,9.50
2019-05-29T03:13:07.401Z,9.50
2019-05-29T03:15:37.917Z,9.50
2019-05-29T03:18:07.426Z,9.50
2019-05-29T03:20:36.880Z,9.50
2019-05-29T03:23:06.327Z,9.50
2019-05-29T03:25:37.083Z,9.50
2019-05-29T03:28:06.576Z,9.50
2019-05-29T03:30:44.239Z,9.50
2019-05-29T03:33:07.076Z,9.40
2019-05-29T03:35:43.239Z,9.40
2019-05-29T03:38:07.626Z,9.40
2019-05-29T03:40:38.571Z,9.40
2019-05-29T03:43:28.671Z,9.40
2019-05-29T03:45:58.229Z,9.40
2019-05-29T03:48:27.897Z,9.40
2019-05-29T03:50:57.405Z,9.40
2019-05-29T03:53:27.151Z,9.40
2019-05-29T03:55:56.689Z,9.40
2019-05-29T03:58:26.486Z,9.40
2019-05-29T04:00:56.087Z,9.40
2019-05-29T04:03:26.896Z,9.40
2019-05-29T04:05:57.477Z,9.40
2019-05-29T04:08:27.443Z,9.40
2019-05-29T04:10:58.027Z,9.40
2019-05-29T04:13:27.646Z,9.40
2019-05-29T04:16:01.194Z,9.40
2019-05-29T04:18:33.910Z,9.50
2019-05-29T04:21:04.433Z,9.60
2019-05-29T04:23:36.260Z,9.60
2019-05-29T04:26:05.950Z,9.70
2019-05-29T04:28:54.788Z,9.70
2019-05-29T04:31:24.355Z,9.90
2019-05-29T04:33:55.035Z,10.00
2019-05-29T04:36:24.509Z,10.20
2019-05-29T04:38:54.024Z,10.30
2019-05-29T04:41:23.476Z,10.30
2019-05-29T04:43:56.903Z,10.40
2019-05-29T04:46:24.012Z,10.40
2019-05-29T04:48:53.446Z,10.50
2019-05-29T04:51:31.229Z,10.60
2019-05-29T04:54:00.776Z,10.70
2019-05-29T04:56:30.745Z,10.80
2019-05-29T04:59:00.307Z,10.70
2019-05-29T05:01:30.813Z,10.70
2019-05-29T05:04:00.499Z,10.70
2019-05-29T05:06:31.091Z,10.60
2019-05-29T05:09:00.612Z,10.70
2019-05-29T05:11:31.269Z,10.70
2019-05-29T05:14:01.761Z,10.80
2019-05-29T05:16:31.675Z,10.80
2019-05-29T05:19:01.284Z,10.70
2019-05-29T05:21:31.874Z,10.70
2019-05-29T05:24:01.503Z,10.80
2019-05-29T05:26:32.061Z,11.00
2019-05-29T05:29:01.577Z,11.10
2019-05-29T05:31:32.291Z,11.20
2019-05-29T05:34:01.827Z,11.40
2019-05-29T05:36:32.565Z,11.60
2019-05-29T05:39:02.140Z,11.90
2019-05-29T05:41:32.717Z,12.20
2019-05-29T05:44:02.239Z,12.30
2019-05-29T05:46:32.852Z,12.30
2019-05-29T05:49:03.690Z,12.40
2019-05-29T05:51:33.480Z,12.40
2019-05-29T05:54:03.266Z,12.40
2019-05-29T05:56:33.878Z,12.40
2019-05-29T05:59:03.328Z,12.60
2019-05-29T06:01:33.800Z,12.70
2019-05-29T06:04:03.338Z,12.70
2019-05-29T06:06:33.872Z,12.80
2019-05-29T06:09:03.602Z,12.80
2019-05-29T06:11:34.092Z,12.80
2019-05-29T06:14:03.626Z,12.80
2019-05-29T06:16:34.214Z,12.90
2019-05-29T06:19:04.414Z,13.00
2019-05-29T06:21:34.645Z,13.10
2019-05-29T06:24:04.330Z,13.30
2019-05-29T06:26:34.761Z,13.40
2019-05-29T06:29:04.574Z,13.50
2019-05-29T06:31:35.184Z,13.70
2019-05-29T06:34:04.888Z,13.80
2019-05-29T06:36:35.463Z,13.70
2019-05-29T06:39:06.995Z,13.90
2019-05-29T06:41:56.894Z,14.10
2019-05-29T06:44:26.441Z,14.30
2019-05-29T06:46:56.021Z,14.50
2019-05-29T06:49:25.493Z,14.50
2019-05-29T06:51:54.955Z,14.50
2019-05-29T06:54:24.406Z,14.60
2019-05-29T06:56:53.879Z,14.70
2019-05-29T06:59:23.327Z,14.90
2019-05-29T07:01:52.811Z,15.10
2019-05-29T07:04:22.297Z,15.20
2019-05-29T07:06:51.828Z,15.20
2019-05-29T07:09:21.365Z,15.20
2019-05-29T07:11:50.840Z,15.20
2019-05-29T07:14:20.273Z,15.30
2019-05-29T07:16:56.073Z,15.60
2019-05-29T07:19:29.654Z,15.80
2019-05-29T07:21:51.899Z,16.00
2019-05-29T07:24:21.339Z,16.10
2019-05-29T07:26:50.824Z,16.20
2019-05-29T07:29:20.350Z,16.40
2019-05-29T07:31:49.869Z,16.40
2019-05-29T07:34:19.437Z,16.60
2019-05-29T07:36:49.043Z,16.60
2019-05-29T07:39:18.482Z,16.60
2019-05-29T07:41:48.510Z,16.60
2019-05-29T07:44:17.968Z,16.80
2019-05-29T07:46:48.746Z,17.10
2019-05-29T07:49:37.880Z,17.20
2019-05-29T07:51:51.722Z,17.20
2019-05-29T07:54:21.162Z,17.20
2019-05-29T07:56:50.699Z,17.20
2019-05-29T07:59:20.129Z,17.20
2019-05-29T08:01:49.513Z,17.20
2019-05-29T08:04:19.087Z,17.20
2019-05-29T08:06:54.235Z,17.20
2019-05-29T08:09:19.630Z,17.10
2019-05-29T08:11:50.130Z,17.10
2019-05-29T08:14:20.719Z,17.20
2019-05-29T08:16:50.519Z,17.20
2019-05-29T08:19:20.040Z,17.20
2019-05-29T08:21:50.581Z,17.40
2019-05-29T08:24:24.461Z,17.60
2019-05-29T08:26:51.284Z,17.70
2019-05-29T08:29:20.719Z,17.80
2019-05-29T08:31:50.993Z,17.70
2019-05-29T08:34:21.473Z,17.70
2019-05-29T08:37:05.960Z,17.90
2019-05-29T08:39:35.209Z,18.10
2019-05-29T08:42:19.574Z,18.50
2019-05-29T08:44:24.202Z,18.80
2019-05-29T08:47:08.918Z,19.20
2019-05-29T08:49:24.763Z,19.50
2019-05-29T08:52:10.570Z,19.60
2019-05-29T08:54:25.297Z,19.60
2019-05-29T08:56:54.787Z,19.40
2019-05-29T08:59:24.263Z,19.40
2019-05-29T09:01:55.606Z,19.50
2019-05-29T09:04:24.930Z,19.80
2019-05-29T09:06:54.477Z,20.00
2019-05-29T09:09:23.999Z,20.00
2019-05-29T09:11:53.931Z,19.50
2019-05-29T09:14:23.542Z,19.00
2019-05-29T09:16:53.317Z,19.10
2019-05-29T09:19:22.942Z,19.30
2019-05-29T09:21:52.433Z,19.30
2019-05-29T09:24:22.982Z,19.60
2019-05-29T09:26:52.672Z,20.00
2019-05-29T09:29:23.536Z,20.20
2019-05-29T09:31:53.286Z,20.30
2019-05-29T09:34:22.833Z,20.30
2019-05-29T09:36:55.470Z,20.40
2019-05-29T09:39:24.773Z,20.20
2019-05-29T09:41:54.314Z,20.10
2019-05-29T09:44:33.921Z,19.50
2019-05-29T09:46:55.990Z,19.00
2019-05-29T09:49:26.075Z,18.80
2019-05-29T09:51:56.197Z,19.10
2019-05-29T09:54:25.889Z,19.50
2019-05-29T09:56:56.656Z,19.80
2019-05-29T09:59:26.721Z,20.20
2019-05-29T10:01:57.053Z,20.30
2019-05-29T10:04:27.308Z,20.40
2019-05-29T10:06:57.606Z,20.50
2019-05-29T10:09:27.073Z,20.20
2019-05-29T10:12:00.122Z,20.10
2019-05-29T10:14:27.614Z,20.40
2019-05-29T10:16:59.310Z,20.60
2019-05-29T10:19:28.074Z,20.50
2019-05-29T10:21:58.447Z,20.60
2019-05-29T10:24:32.184Z,20.70
2019-05-29T10:27:01.525Z,20.80
2019-05-29T10:29:30.868Z,20.60
2019-05-29T10:32:00.436Z,20.70
2019-05-29T10:34:30.019Z,20.70
2019-05-29T10:36:59.479Z,21.00
2019-05-29T10:39:28.954Z,21.10
2019-05-29T10:41:58.401Z,21.30
2019-05-29T10:44:27.875Z,21.40
2019-05-29T10:46:57.318Z,21.50
2019-05-29T10:49:26.889Z,21.60
2019-05-29T10:52:10.870Z,21.60
2019-05-29T10:54:27.454Z,21.30
2019-05-29T10:56:56.931Z,21.10
2019-05-29T10:59:26.445Z,21.00
2019-05-29T11:01:55.906Z,21.00
2019-05-29T11:04:25.369Z,20.90
2019-05-29T11:07:03.805Z,21.10
2019-05-29T11:09:43.950Z,21.40
2019-05-29T11:12:04.684Z,21.70
2019-05-29T11:14:34.141Z,21.70
2019-05-29T11:17:03.596Z,21.50
2019-05-29T11:19:33.073Z,21.40
2019-05-29T11:22:22.879Z,21.40
2019-05-29T11:24:33.649Z,21.40
2019-05-29T11:27:03.112Z,21.40
2019-05-29T11:29:32.525Z,21.40
2019-05-29T11:32:02.001Z,21.30
2019-05-29T11:34:31.467Z,21.40
2019-05-29T11:37:00.901Z,21.60
2019-05-29T11:39:30.380Z,22.00
2019-05-29T11:41:59.826Z,22.10
2019-05-29T11:44:29.290Z,22.00
2019-05-29T11:46:58.982Z,21.90
2019-05-29T11:49:28.436Z,21.90
2019-05-29T11:52:18.706Z,21.90
2019-05-29T11:54:28.987Z,22.00
2019-05-29T11:56:59.193Z,21.90
2019-05-29T11:59:29.796Z,21.40
2019-05-29T12:02:00.626Z,21.30
2019-05-29T12:04:30.421Z,21.30
2019-05-29T12:06:59.872Z,21.70
2019-05-29T12:09:33.217Z,22.00
2019-05-29T12:12:01.991Z,21.90
2019-05-29T12:14:31.531Z,21.60
2019-05-29T12:17:02.448Z,21.80
2019-05-29T12:19:32.288Z,22.10
2019-05-29T12:22:02.786Z,22.40
2019-05-29T12:24:32.385Z,22.50
2019-05-29T12:27:02.721Z,22.70
2019-05-29T12:29:33.416Z,22.60
2019-05-29T12:32:08.143Z,22.50
2019-05-29T12:34:33.967Z,22.10
2019-05-29T12:37:03.866Z,21.90
2019-05-29T12:39:33.451Z,22.00
2019-05-29T12:42:03.763Z,22.50
2019-05-29T12:44:33.447Z,22.90
2019-05-29T12:47:04.254Z,23.10
2019-05-29T12:49:33.870Z,23.00
2019-05-29T12:52:07.212Z,23.10
2019-05-29T12:54:35.557Z,23.30
2019-05-29T12:57:05.083Z,23.40
2019-05-29T12:59:34.545Z,23.60
2019-05-29T13:02:04.765Z,23.70
2019-05-29T13:05:05.199Z,23.60
2019-05-29T13:07:05.461Z,23.70
2019-05-29T13:09:35.029Z,23.80
2019-05-29T13:12:04.834Z,23.70
2019-05-29T13:14:34.510Z,23.50
2019-05-29T13:17:05.216Z,23.30
2019-05-29T13:19:34.730Z,23.10
2019-05-29T13:22:06.254Z,22.90
2019-05-29T13:24:35.416Z,23.40
2019-05-29T13:27:06.056Z,24.00
2019-05-29T13:29:36.046Z,24.10
2019-05-29T13:32:07.326Z,24.40
2019-05-29T13:34:36.741Z,24.30
2019-05-29T13:37:09.139Z,24.70
2019-05-29T13:39:37.345Z,25.50
2019-05-29T13:42:10.901Z,26.00
2019-05-29T13:44:39.110Z,25.60
2019-05-29T13:47:08.655Z,24.90
2019-05-29T13:49:38.115Z,24.20
2019-05-29T13:52:11.806Z,23.50
2019-05-29T13:54:38.635Z,23.20
2019-05-29T13:57:08.793Z,23.20
2019-05-29T13:59:38.344Z,23.70
2019-05-29T14:02:08.690Z,24.00
2019-05-29T14:04:38.956Z,23.90
2019-05-29T14:07:08.825Z,24.20
2019-05-29T14:09:39.098Z,24.50
2019-05-29T14:12:09.432Z,24.30
2019-05-29T14:14:46.387Z,24.10
2019-05-29T14:17:15.839Z,24.90
2019-05-29T14:19:45.319Z,25.60
2019-05-29T14:22:15.840Z,26.40
2019-05-29T14:24:45.312Z,26.30
2019-05-29T14:27:16.280Z,25.30
2019-05-29T14:29:46.721Z,24.90
2019-05-29T14:32:18.967Z,25.90
2019-05-29T14:34:49.626Z,27.30
2019-05-29T14:37:19.048Z,27.40
2019-05-29T14:39:48.560Z,27.00
2019-05-29T14:42:18.167Z,26.90
2019-05-29T14:44:47.646Z,26.00
2019-05-29T14:47:18.362Z,24.90
2019-05-29T14:49:49.443Z,24.10
2019-05-29T14:52:18.883Z,23.70
2019-05-29T14:54:48.341Z,23.20
2019-05-29T14:57:24.830Z,23.10
2019-05-29T14:59:48.966Z,22.90
2019-05-29T15:02:23.617Z,23.30
2019-05-29T15:04:49.511Z,24.50
2019-05-29T15:07:22.664Z,24.60
2019-05-29T15:09:50.155Z,25.40
2019-05-29T15:12:20.749Z,26.10
2019-05-29T15:14:52.177Z,27.10
2019-05-29T15:17:22.373Z,28.30
2019-05-29T15:19:52.930Z,28.50
2019-05-29T15:22:22.390Z,28.60
2019-05-29T15:25:04.553Z,29.40
2019-05-29T15:27:24.093Z,30.30
2019-05-29T15:29:53.543Z,31.20
2019-05-29T15:32:22.991Z,32.00
2019-05-29T15:34:52.514Z,31.50
2019-05-29T15:37:21.955Z,31.40
2019-05-29T15:39:51.486Z,31.90
2019-05-29T15:42:21.027Z,32.40
2019-05-29T15:44:50.518Z,32.60
2019-05-29T15:47:20.127Z,32.60
2019-05-29T15:49:49.642Z,32.60
2019-05-29T15:52:19.109Z,32.50
2019-05-29T15:54:48.585Z,32.60
2019-05-29T15:57:18.030Z,33.00
2019-05-29T15:59:47.505Z,33.10
2019-05-29T16:02:18.033Z,33.30
2019-05-29T16:04:48.705Z,32.90
2019-05-29T16:07:18.323Z,30.90
2019-05-29T16:09:47.904Z,28.80
2019-05-29T16:12:18.814Z,27.00
2019-05-29T16:14:49.584Z,25.80
2019-05-29T16:17:19.407Z,25.10
2019-05-29T16:19:48.953Z,24.60
2019-05-29T16:22:19.011Z,24.10
2019-05-29T16:24:48.705Z,23.90
2019-05-29T16:27:18.876Z,23.70
2019-05-29T16:29:48.344Z,23.50
2019-05-29T16:32:17.936Z,23.40
2019-05-29T16:34:47.432Z,23.20
2019-05-29T16:37:18.055Z,22.90
2019-05-29T16:39:50.255Z,22.80
2019-05-29T16:42:22.043Z,22.70
2019-05-29T16:44:52.026Z,22.60
2019-05-29T16:47:22.624Z,22.60
2019-05-29T16:49:52.223Z,22.50
2019-05-29T16:52:22.823Z,22.50
2019-05-29T16:54:52.397Z,22.40
2019-05-29T16:57:23.337Z,22.30
2019-05-29T16:59:54.720Z,22.30
2019-05-29T17:02:24.165Z,22.40
2019-05-29T17:04:58.164Z,22.30
2019-05-29T17:07:26.429Z,22.20
2019-05-29T17:09:55.866Z,22.20
2019-05-29T17:12:25.418Z,22.10
2019-05-29T17:14:54.887Z,21.90
2019-05-29T17:17:24.742Z,21.70
2019-05-29T17:19:54.522Z,21.60
2019-05-29T17:22:24.914Z,21.60
2019-05-29T17:24:54.476Z,21.50
2019-05-29T17:27:25.155Z,21.40
2019-05-29T17:29:54.798Z,21.20
2019-05-29T17:32:25.334Z,21.10
2019-05-29T17:34:55.075Z,21.00
2019-05-29T17:37:25.701Z,21.00
2019-05-29T17:39:55.151Z,20.90
2019-05-29T17:42:24.812Z,20.80
2019-05-29T17:44:54.259Z,20.70
2019-05-29T17:47:23.735Z,20.70
2019-05-29T17:49:53.239Z,20.60
2019-05-29T17:52:23.893Z,20.50
2019-05-29T17:54:53.433Z,20.50
2019-05-29T17:57:23.896Z,20.40
2019-05-29T17:59:53.510Z,20.40
2019-05-29T18:02:26.349Z,20.30
2019-05-29T18:04:55.862Z,20.30
2019-05-29T18:07:26.625Z,20.20
2019-05-29T18:09:56.207Z,20.10
2019-05-29T18:12:25.690Z,20.00
2019-05-29T18:14:55.233Z,19.90
2019-05-29T18:17:25.487Z,19.80
2019-05-29T18:19:55.143Z,19.70
2019-05-29T18:22:27.868Z,19.70
2019-05-29T18:24:57.466Z,19.70
2019-05-29T18:27:28.067Z,19.60
2019-05-29T18:29:57.678Z,19.50
2019-05-29T18:32:27.195Z,19.50
2019-05-29T18:34:56.923Z,19.40
2019-05-29T18:37:26.394Z,19.20
2019-05-29T18:39:55.857Z,19.00
2019-05-29T18:42:26.023Z,18.70
2019-05-29T18:44:56.687Z,18.60
2019-05-29T18:47:27.243Z,18.50
2019-05-29T18:49:56.813Z,18.40
2019-05-29T18:52:27.614Z,18.30
2019-05-29T18:54:57.118Z,18.30
2019-05-29T18:57:26.968Z,18.20
2019-05-29T18:59:56.563Z,18.10
2019-05-29T19:02:27.391Z,18.10
2019-05-29T19:04:57.007Z,18.10
2019-05-29T19:07:27.640Z,18.00
2019-05-29T19:09:57.215Z,18.10
2019-05-29T19:12:27.805Z,18.10
2019-05-29T19:14:57.402Z,18.00
2019-05-29T19:17:27.928Z,18.00
2019-05-29T19:19:57.599Z,17.90
2019-05-29T19:22:28.365Z,17.90
2019-05-29T19:24:57.987Z,18.00
2019-05-29T19:27:36.529Z,18.00
2019-05-29T19:29:58.499Z,18.00
2019-05-29T19:32:29.277Z,17.90
2019-05-29T19:35:00.072Z,17.90
2019-05-29T19:37:29.940Z,17.90
2019-05-29T19:40:00.631Z,17.90
2019-05-29T19:42:30.298Z,17.80
2019-05-29T19:45:00.792Z,17.80
2019-05-29T19:47:30.717Z,17.90
2019-05-29T19:50:01.364Z,17.90
2019-05-29T19:52:31.276Z,17.90
2019-05-29T19:55:00.725Z,17.80
2019-05-29T19:57:46.537Z,17.80
2019-05-29T20:00:02.361Z,17.80
2019-05-29T20:02:32.657Z,17.80
2019-05-29T20:05:02.145Z,17.80
2019-05-29T20:07:33.293Z,17.80
2019-05-29T20:10:02.982Z,17.80
2019-05-29T20:12:33.724Z,17.70
2019-05-29T20:15:04.020Z,17.70
2019-05-29T20:17:34.576Z,17.70
2019-05-29T20:20:06.533Z,17.70
2019-05-29T20:22:36.938Z,17.70
2019-05-29T20:25:13.235Z,17.70
2019-05-29T20:27:40.654Z,17.70
2019-05-29T20:30:18.139Z,17.70
2019-05-29T20:32:48.151Z,17.60
2019-05-29T20:35:18.138Z,17.60
2019-05-29T20:37:47.603Z,17.60
2019-05-29T20:40:17.990Z,17.60
2019-05-29T20:42:49.010Z,17.70
2019-05-29T20:45:18.670Z,17.70
2019-05-29T20:47:48.124Z,17.60
2019-05-29T20:50:18.684Z,17.60
2019-05-29T20:52:48.134Z,17.60
2019-05-29T20:55:17.938Z,17.60
2019-05-29T20:57:47.400Z,17.60
2019-05-29T21:00:18.465Z,17.60
2019-05-29T21:02:48.990Z,17.60
2019-05-29T21:05:18.571Z,17.60
2019-05-29T21:07:48.031Z,17.60
2019-05-29T21:10:17.666Z,17.60
2019-05-29T21:12:49.554Z,17.60
2019-05-29T21:15:19.148Z,17.60
2019-05-29T21:17:48.583Z,17.60
2019-05-29T21:20:18.282Z,17.60
2019-05-29T21:22:49.268Z,17.60
2019-05-29T21:25:19.457Z,17.50
2019-05-29T21:27:49.687Z,17.50
2019-05-29T21:30:23.874Z,17.50
2019-05-29T21:32:53.789Z,17.50
2019-05-29T21:35:23.242Z,17.50
2019-05-29T21:37:52.777Z,17.50
2019-05-29T21:40:23.500Z,17.50
2019-05-29T21:42:52.962Z,17.40
2019-05-29T21:45:22.502Z,17.50
2019-05-29T21:47:51.947Z,17.50
2019-05-29T21:50:21.405Z,17.40
2019-05-29T21:52:50.977Z,17.40
2019-05-29T21:55:20.966Z,17.40
2019-05-29T21:57:50.505Z,17.50
2019-05-29T22:00:31.379Z,17.40
2019-05-29T22:03:01.266Z,17.40
2019-05-29T22:05:30.727Z,17.40
2019-05-29T22:08:00.326Z,17.40
2019-05-29T22:10:29.874Z,17.40
2019-05-29T22:13:00.582Z,17.40
2019-05-29T22:15:30.282Z,17.40
2019-05-29T22:18:01.200Z,17.40
2019-05-29T22:20:30.784Z,17.40
2019-05-29T22:23:02.356Z,17.30
2019-05-29T22:25:34.425Z,17.30
2019-05-29T22:28:02.549Z,17.30
2019-05-29T22:30:32.198Z,17.30
2019-05-29T22:33:01.967Z,17.30
2019-05-29T22:35:31.493Z,17.30
2019-05-29T22:38:01.856Z,17.20
2019-05-29T22:40:33.059Z,17.20
2019-05-29T22:43:02.721Z,17.20
2019-05-29T22:45:32.225Z,17.20
2019-05-29T22:48:02.230Z,17.10
2019-05-29T22:50:31.848Z,17.10
2019-05-29T22:53:02.090Z,17.10
2019-05-29T22:55:31.797Z,17.10
2019-05-29T22:58:02.225Z,17.10
2019-05-29T23:00:31.971Z,17.10
2019-05-29T23:03:02.423Z,17.10
2019-05-29T23:05:32.920Z,17.10
2019-05-29T23:08:02.604Z,17.10
2019-05-29T23:10:32.151Z,17.00
2019-05-29T23:13:05.488Z,17.00
2019-05-29T23:15:32.697Z,17.00
2019-05-29T23:18:02.828Z,17.00
2019-05-29T23:20:32.363Z,17.00
2019-05-29T23:23:02.910Z,17.00
2019-05-29T23:25:33.923Z,17.00
2019-05-29T23:28:04.154Z,17.00
2019-05-29T23:30:33.624Z,17.00
2019-05-29T23:33:03.480Z,17.00
2019-05-29T23:35:33.066Z,17.00
2019-05-29T23:38:03.466Z,17.00
2019-05-29T23:40:33.002Z,17.00
2019-05-29T23:43:04.086Z,17.00
2019-05-29T23:45:33.567Z,16.90
2019-05-29T23:48:03.873Z,16.90
2019-05-29T23:50:33.443Z,16.90
2019-05-29T23:53:03.994Z,16.80
2019-05-29T23:55:34.635Z,16.80
2019-05-29T23:58:07.867Z,16.70
